VOMM

Chennai International Airport

Airport
ICAO code
VOMM
Summary
ICAO Region
APAC
ICAO Territory
Location

Chennai, Tamil Nadu,

Coordinates
12° 58' 54" N , 80° 9' 43" E
KCC
Metar
Observation
VOMM 250130Z 25006KT 4000 HZ FEW020 30/24 Q1007 BECMG 5000 HZ
Station
Madras / Minambakkam
Date/Time
2022-09-25 01:30:00
Wind direction
250°
Wind speed
06 kts
Lowest cloud amount
few clouds
Temperature
30°C
Dew point
24°C
Humidity
70%
QNH
1007 hPa
Weather condition
n/a

Description

Chennai International Airport is an international airport located 15 km southwest of Chennai, the capital city of the Indian state of Tamil Nadu.

Climatology

Tropical Savanna climate (Köppen climate classification Aw) - monthly mean temperatures above 18°C, and a pronounced dry season. A Tropical Savanna climate has more pronounced dry seasons than a Tropical Monsoon climate.

Airport map

Aerial View

SKYbrary Partners:

Safety knowledge contributed by: